createdAt,value
2017-11-18T00:00:30.785Z,90.25
2017-11-18T00:02:58.323Z,88.74
2017-11-18T00:05:25.838Z,88.59
2017-11-18T00:07:53.571Z,90.15
2017-11-18T00:10:21.096Z,88.28
2017-11-18T00:12:48.618Z,88.69
2017-11-18T00:15:16.315Z,88.21
2017-11-18T00:17:43.891Z,88.02
2017-11-18T00:20:11.415Z,88.08
2017-11-18T00:22:39.161Z,88.26
2017-11-18T00:25:06.687Z,88.06
2017-11-18T00:27:34.201Z,88.08
2017-11-18T00:30:01.960Z,88.12
2017-11-18T00:32:29.477Z,88.31
2017-11-18T00:34:56.997Z,88.24
2017-11-18T00:37:24.669Z,88.63
2017-11-18T00:39:52.190Z,88.33
2017-11-18T00:42:19.733Z,87.47
2017-11-18T00:44:47.307Z,88.12
2017-11-18T00:47:14.860Z,88.34
2017-11-18T00:49:42.370Z,87.63
2017-11-18T00:52:09.951Z,87.69
2017-11-18T00:54:37.473Z,88.00
2017-11-18T00:57:05.106Z,89.07
2017-11-18T00:59:32.649Z,87.09
2017-11-18T01:02:00.185Z,86.82
2017-11-18T01:04:27.729Z,87.19
2017-11-18T01:06:55.245Z,87.38
2017-11-18T01:09:22.836Z,87.33
2017-11-18T01:11:50.365Z,86.27
2017-11-18T01:14:17.891Z,86.06
2017-11-18T01:16:45.472Z,86.23
2017-11-18T01:19:12.989Z,87.67
2017-11-18T01:21:40.519Z,86.07
2017-11-18T01:24:08.084Z,86.17
2017-11-18T01:26:35.700Z,86.11
2017-11-18T01:29:03.222Z,86.52
2017-11-18T01:31:30.772Z,85.54
2017-11-18T01:33:58.326Z,85.95
2017-11-18T01:36:25.872Z,88.27
2017-11-18T01:38:53.581Z,85.65
2017-11-18T01:41:21.106Z,90.93
2017-11-18T01:43:48.641Z,84.90
2017-11-18T01:46:16.192Z,85.27
2017-11-18T01:48:43.715Z,85.11
2017-11-18T01:51:11.353Z,85.38
2017-11-18T01:53:38.885Z,86.00
2017-11-18T01:56:06.406Z,87.70
2017-11-18T01:58:33.986Z,85.55
2017-11-18T02:01:01.506Z,88.63
2017-11-18T02:03:29.037Z,85.69
2017-11-18T02:05:56.617Z,84.86
2017-11-18T02:08:24.131Z,86.59
2017-11-18T02:10:51.649Z,90.60
2017-11-18T02:13:19.301Z,84.44
2017-11-18T02:15:47.558Z,85.82
2017-11-18T02:18:15.099Z,88.78
2017-11-18T02:20:42.846Z,91.28
2017-11-18T02:23:10.395Z,84.04
2017-11-18T02:25:37.930Z,88.14
2017-11-18T02:28:05.766Z,86.46
2017-11-18T02:30:33.278Z,84.50
2017-11-18T02:33:00.817Z,87.38
2017-11-18T02:35:28.510Z,83.56
2017-11-18T02:37:56.072Z,87.91
2017-11-18T02:40:23.622Z,83.76
2017-11-18T02:42:51.411Z,83.79
2017-11-18T02:45:18.946Z,84.22
2017-11-18T02:47:46.500Z,84.40
2017-11-18T02:50:14.057Z,84.20
2017-11-18T02:52:41.583Z,87.10
2017-11-18T02:55:09.266Z,83.84
2017-11-18T02:57:36.806Z,87.46
2017-11-18T03:00:04.383Z,84.28
2017-11-18T03:02:31.917Z,88.42
2017-11-18T03:04:59.440Z,87.77
2017-11-18T03:07:27.141Z,84.64
2017-11-18T03:09:54.666Z,83.83
2017-11-18T03:12:22.185Z,84.25
2017-11-18T03:14:49.766Z,84.13
2017-11-18T03:17:17.291Z,84.76
2017-11-18T03:19:44.810Z,85.84
2017-11-18T03:22:12.441Z,84.31
2017-11-18T03:24:39.969Z,90.03
2017-11-18T03:27:07.523Z,85.29
2017-11-18T03:29:35.038Z,84.67
2017-11-18T03:32:02.587Z,84.12
2017-11-18T03:34:30.102Z,86.24
2017-11-18T03:36:57.807Z,84.25
2017-11-18T03:39:25.327Z,84.34
2017-11-18T03:41:52.856Z,85.39
2017-11-18T03:44:20.624Z,84.00
2017-11-18T03:46:48.155Z,86.47
2017-11-18T03:49:15.697Z,83.74
2017-11-18T03:51:43.237Z,83.98
2017-11-18T03:54:10.754Z,83.73
2017-11-18T03:56:38.377Z,83.68
2017-11-18T03:59:05.903Z,85.75
2017-11-18T04:01:33.449Z,83.56
2017-11-18T04:04:00.986Z,85.49
2017-11-18T04:06:28.677Z,87.71
2017-11-18T04:08:56.188Z,83.51
2017-11-18T04:11:23.700Z,86.92
2017-11-18T04:13:51.243Z,83.64
2017-11-18T04:16:18.782Z,84.47
2017-11-18T04:18:46.327Z,85.79
2017-11-18T04:21:13.991Z,87.18
2017-11-18T04:23:41.500Z,86.52
2017-11-18T04:26:09.026Z,92.95
2017-11-18T04:28:36.615Z,91.84
2017-11-18T04:31:04.157Z,83.59
2017-11-18T04:33:31.676Z,85.95
2017-11-18T04:35:59.214Z,84.53
2017-11-18T04:38:26.754Z,84.46
2017-11-18T04:40:54.287Z,83.65
2017-11-18T04:43:21.852Z,83.92
2017-11-18T04:45:49.377Z,84.34
2017-11-18T04:48:17.120Z,84.28
2017-11-18T04:50:44.635Z,84.50
2017-11-18T04:53:12.154Z,83.59
2017-11-18T04:55:39.818Z,83.63
2017-11-18T04:58:07.351Z,83.80
2017-11-18T05:00:34.886Z,83.19
2017-11-18T05:03:03.407Z,84.29
2017-11-18T05:05:30.951Z,83.36
2017-11-18T05:07:58.530Z,82.89
2017-11-18T05:10:26.054Z,83.04
2017-11-18T05:12:53.577Z,85.16
2017-11-18T05:15:21.156Z,83.02
2017-11-18T05:17:48.667Z,86.57
2017-11-18T05:20:16.206Z,85.50
2017-11-18T05:22:43.950Z,85.20
2017-11-18T05:25:11.498Z,84.92
2017-11-18T05:27:39.055Z,84.05
2017-11-18T05:30:06.689Z,82.66
2017-11-18T05:32:34.262Z,84.73
2017-11-18T05:35:01.772Z,82.59
2017-11-18T05:37:29.304Z,82.75
2017-11-18T05:39:56.870Z,82.27
2017-11-18T05:43:24.459Z,83.01
2017-11-18T05:45:51.999Z,84.65
2017-11-18T05:48:19.543Z,83.14
2017-11-18T05:50:47.069Z,82.44
2017-11-18T05:53:14.856Z,82.95
2017-11-18T05:55:42.365Z,82.91
2017-11-18T05:58:10.786Z,85.40
2017-11-18T06:00:38.352Z,87.37
2017-11-18T06:03:05.885Z,82.98
2017-11-18T06:05:33.425Z,82.24
2017-11-18T06:08:00.938Z,83.86
2017-11-18T06:10:28.660Z,83.74
2017-11-18T06:12:56.187Z,82.87
2017-11-18T06:15:23.699Z,82.44
2017-11-18T06:17:51.390Z,82.16
2017-11-18T06:20:18.902Z,82.03
2017-11-18T06:22:46.427Z,82.29
2017-11-18T06:25:14.102Z,81.93
2017-11-18T06:27:41.674Z,82.19
2017-11-18T06:30:09.335Z,83.32
2017-11-18T06:32:36.920Z,82.29
2017-11-18T06:35:04.434Z,84.19
2017-11-18T06:37:31.957Z,83.15
2017-11-18T06:39:59.669Z,82.87
2017-11-18T06:42:27.186Z,83.72
2017-11-18T06:44:54.705Z,83.94
2017-11-18T06:47:22.265Z,83.69
2017-11-18T06:49:49.782Z,82.08
2017-11-18T06:52:17.315Z,82.04
2017-11-18T06:54:44.867Z,82.24
2017-11-18T06:57:13.160Z,82.16
2017-11-18T06:59:40.858Z,82.92
2017-11-18T07:02:08.378Z,82.49
2017-11-18T07:04:35.889Z,84.68
2017-11-18T07:07:03.562Z,82.53
2017-11-18T07:09:31.088Z,82.25
2017-11-18T07:11:58.601Z,83.06
2017-11-18T07:14:26.146Z,82.92
2017-11-18T07:16:53.797Z,83.00
2017-11-18T07:19:21.325Z,82.25
2017-11-18T07:21:48.833Z,83.00
2017-11-18T07:24:16.405Z,84.97
2017-11-18T07:26:43.914Z,82.32
2017-11-18T07:29:11.444Z,82.19
2017-11-18T07:31:39.117Z,82.46
2017-11-18T07:34:06.654Z,82.43
2017-11-18T07:36:34.174Z,82.32
2017-11-18T07:39:01.750Z,81.78
2017-11-18T07:41:29.270Z,81.78
2017-11-18T07:43:56.794Z,81.37
2017-11-18T07:46:24.535Z,81.52
2017-11-18T07:48:52.082Z,81.51
2017-11-18T07:51:19.593Z,81.68
2017-11-18T07:53:47.272Z,82.17
2017-11-18T07:56:14.785Z,80.65
2017-11-18T07:58:42.303Z,81.94
2017-11-18T08:01:09.980Z,81.46
2017-11-18T08:03:37.495Z,81.67
2017-11-18T08:06:05.038Z,82.18
2017-11-18T08:08:32.689Z,82.62
2017-11-18T08:11:00.226Z,82.42
2017-11-18T08:13:27.750Z,82.15
2017-11-18T08:15:55.285Z,82.91
2017-11-18T08:18:22.808Z,81.87
2017-11-18T08:20:50.441Z,81.87
2017-11-18T08:23:17.964Z,81.76
2017-11-18T08:25:45.504Z,81.64
2017-11-18T08:28:13.077Z,81.71
2017-11-18T08:30:40.634Z,80.42
2017-11-18T08:33:08.163Z,81.62
2017-11-18T08:35:35.711Z,82.26
2017-11-18T08:38:03.239Z,82.16
2017-11-18T08:40:30.810Z,82.31
2017-11-18T08:42:58.321Z,82.04
2017-11-18T08:45:25.854Z,80.97
2017-11-18T08:47:53.398Z,80.75
2017-11-18T08:50:21.150Z,80.15
2017-11-18T08:52:48.686Z,81.12
2017-11-18T08:55:16.207Z,79.33
2017-11-18T08:57:43.857Z,79.36
2017-11-18T09:00:11.422Z,80.51
2017-11-18T09:02:38.938Z,80.71
2017-11-18T09:05:06.483Z,79.67
2017-11-18T09:07:34.001Z,79.67
2017-11-18T09:10:01.558Z,78.70
2017-11-18T09:12:29.102Z,79.06
2017-11-18T09:14:56.849Z,78.83
2017-11-18T09:17:24.367Z,78.34
2017-11-18T09:19:51.895Z,79.59
2017-11-18T09:22:19.579Z,79.59
2017-11-18T09:24:47.101Z,78.70
2017-11-18T09:27:14.626Z,79.70
2017-11-18T09:29:42.279Z,79.24
2017-11-18T09:32:09.794Z,79.77
2017-11-18T09:34:37.322Z,79.39
2017-11-18T09:37:04.874Z,78.74
2017-11-18T09:39:32.578Z,79.20
2017-11-18T09:42:00.098Z,78.82
2017-11-18T09:44:27.637Z,78.53
2017-11-18T09:46:55.226Z,78.15
2017-11-18T09:49:22.733Z,77.27
2017-11-18T09:51:50.247Z,77.59
2017-11-18T09:54:18.005Z,77.75
2017-11-18T09:56:45.519Z,77.11
2017-11-18T09:59:13.049Z,78.95
2017-11-18T10:01:40.603Z,80.67
2017-11-18T10:04:08.261Z,80.86
2017-11-18T10:06:35.794Z,80.15
2017-11-18T10:09:03.356Z,80.49
2017-11-18T10:11:30.944Z,79.24
2017-11-18T10:13:58.475Z,77.57
2017-11-18T10:16:25.994Z,77.70
2017-11-18T10:18:53.534Z,78.52
2017-11-18T10:21:21.080Z,81.30
2017-11-18T10:23:48.627Z,83.90
2017-11-18T10:26:16.142Z,85.31
2017-11-18T10:28:43.819Z,86.74
2017-11-18T10:31:11.346Z,86.31
2017-11-18T10:33:38.957Z,87.48
2017-11-18T10:36:06.515Z,86.49
2017-11-18T10:38:34.030Z,84.81
2017-11-18T10:41:01.602Z,87.08
2017-11-18T10:43:29.109Z,85.43
2017-11-18T10:45:56.641Z,85.92
2017-11-18T10:48:24.330Z,85.91
2017-11-18T10:50:51.850Z,85.59
2017-11-18T10:53:19.380Z,84.76
2017-11-18T10:55:46.934Z,85.86
2017-11-18T10:58:14.524Z,85.03
2017-11-18T11:00:42.072Z,85.25
2017-11-18T11:03:09.590Z,85.11
2017-11-18T11:05:37.150Z,84.72
2017-11-18T11:08:04.806Z,83.07
2017-11-18T11:10:32.327Z,83.38
2017-11-18T11:12:59.838Z,84.86
2017-11-18T11:15:27.386Z,84.49
2017-11-18T11:17:55.102Z,83.17
2017-11-18T11:20:22.627Z,83.27
2017-11-18T11:22:50.145Z,85.38
2017-11-18T11:25:17.698Z,85.83
2017-11-18T11:27:45.279Z,84.85
2017-11-18T11:30:12.842Z,85.28
2017-11-18T11:32:40.358Z,86.35
2017-11-18T11:35:08.370Z,86.48
2017-11-18T11:37:35.897Z,85.67
2017-11-18T11:40:03.436Z,84.57
2017-11-18T11:42:31.124Z,85.36
2017-11-18T11:44:58.666Z,85.04
2017-11-18T11:47:26.249Z,83.89
2017-11-18T11:49:53.803Z,84.58
2017-11-18T11:52:21.314Z,85.88
2017-11-18T11:54:48.899Z,85.13
2017-11-18T11:57:16.434Z,83.94
2017-11-18T11:59:44.143Z,82.04
2017-11-18T12:02:11.670Z,82.61
2017-11-18T12:04:39.215Z,80.93
2017-11-18T12:07:06.793Z,82.77
2017-11-18T12:09:34.316Z,80.98
2017-11-18T12:12:01.825Z,82.68
2017-11-18T12:14:29.363Z,84.25
2017-11-18T12:16:56.895Z,84.49
2017-11-18T12:19:24.492Z,85.68
2017-11-18T12:21:52.055Z,85.67
2017-11-18T12:24:19.565Z,85.65
2017-11-18T12:26:47.122Z,85.31
2017-11-18T12:29:14.669Z,85.16
2017-11-18T12:31:42.403Z,86.22
2017-11-18T12:34:09.932Z,86.56
2017-11-18T12:36:37.459Z,86.66
2017-11-18T12:39:05.222Z,86.67
2017-11-18T12:41:32.733Z,87.33
2017-11-18T12:44:00.247Z,90.61
2017-11-18T12:46:27.790Z,93.88
2017-11-18T12:48:55.334Z,96.10
2017-11-18T12:51:22.849Z,95.63
2017-11-18T12:53:50.411Z,95.17
2017-11-18T12:56:17.929Z,94.05
2017-11-18T12:58:45.465Z,95.48
2017-11-18T13:01:13.079Z,96.11
2017-11-18T13:03:40.618Z,96.29
2017-11-18T13:06:08.491Z,95.81
2017-11-18T13:08:36.062Z,95.41
2017-11-18T13:11:03.588Z,95.89
2017-11-18T13:13:31.251Z,95.75
2017-11-18T13:15:58.761Z,95.94
2017-11-18T13:18:26.273Z,95.31
2017-11-18T13:20:53.920Z,95.91
2017-11-18T13:23:21.447Z,96.07
2017-11-18T13:25:48.981Z,95.65
2017-11-18T13:28:16.564Z,94.82
2017-11-18T13:30:44.086Z,94.55
2017-11-18T13:33:11.651Z,94.21
2017-11-18T13:35:39.190Z,94.15
2017-11-18T13:38:06.782Z,94.68
2017-11-18T13:40:34.293Z,94.91
2017-11-18T13:43:01.826Z,94.27
2017-11-18T13:45:29.418Z,95.09
2017-11-18T13:47:56.935Z,94.29
2017-11-18T13:50:24.454Z,93.75
2017-11-18T13:52:51.994Z,94.80
2017-11-18T13:55:19.643Z,94.20
2017-11-18T13:57:47.170Z,94.58
2017-11-18T14:00:14.770Z,94.28
2017-11-18T14:02:42.314Z,94.94
2017-11-18T14:05:09.990Z,95.90
2017-11-18T14:07:37.506Z,96.52
2017-11-18T14:10:05.032Z,95.50
2017-11-18T14:12:32.573Z,95.65
2017-11-18T14:15:00.252Z,96.62
2017-11-18T14:17:27.935Z,95.90
2017-11-18T14:19:55.455Z,96.37
2017-11-18T14:22:23.026Z,95.61
2017-11-18T14:24:50.545Z,96.19
2017-11-18T14:27:18.112Z,95.74
2017-11-18T14:29:45.711Z,95.26
2017-11-18T14:32:13.239Z,95.75
2017-11-18T14:34:40.775Z,95.11
2017-11-18T14:37:08.351Z,96.29
2017-11-18T14:39:35.886Z,95.68
2017-11-18T14:42:03.398Z,96.75
2017-11-18T14:44:30.941Z,97.96
2017-11-18T14:46:58.478Z,97.49
2017-11-18T14:49:26.033Z,97.67
2017-11-18T14:51:53.561Z,97.44
2017-11-18T14:54:21.125Z,97.71
2017-11-18T14:56:48.693Z,97.21
2017-11-18T14:59:16.317Z,97.01
2017-11-18T15:01:43.909Z,97.13
2017-11-18T15:04:11.492Z,97.12
2017-11-18T15:06:39.037Z,97.16
2017-11-18T15:09:06.727Z,97.60
2017-11-18T15:11:34.279Z,97.75
2017-11-18T15:14:01.843Z,97.84
2017-11-18T15:19:41.262Z,97.86
2017-11-18T15:22:12.798Z,97.96
2017-11-18T15:24:45.917Z,98.05
2017-11-18T15:27:19.269Z,98.34
2017-11-18T15:29:52.222Z,98.56
2017-11-18T15:32:25.473Z,98.78
2017-11-18T15:34:59.577Z,98.79
2017-11-18T15:37:32.843Z,98.99
2017-11-18T15:40:00.514Z,99.19
2017-11-18T15:42:28.088Z,99.24
2017-11-18T15:45:02.081Z,99.17
2017-11-18T15:50:32.377Z,99.40
2017-11-18T15:53:05.797Z,99.26
2017-11-18T15:58:39.822Z,99.12
2017-11-18T16:01:13.333Z,99.23
2017-11-18T16:06:48.725Z,99.23
2017-11-18T16:09:18.113Z,99.26
2017-11-18T16:11:45.650Z,99.31
2017-11-18T16:14:13.185Z,99.12
2017-11-18T16:16:40.865Z,99.23
2017-11-18T16:19:08.389Z,99.17
2017-11-18T16:21:35.935Z,99.16
2017-11-18T16:24:03.622Z,99.03
2017-11-18T16:26:31.146Z,98.89
2017-11-18T16:28:58.685Z,98.80
2017-11-18T16:31:26.250Z,98.17
2017-11-18T16:33:53.844Z,98.08
2017-11-18T16:36:21.391Z,98.14
2017-11-18T16:38:48.954Z,97.95
2017-11-18T16:41:16.619Z,97.61
2017-11-18T16:43:44.226Z,97.62
2017-11-18T16:46:11.759Z,97.49
2017-11-18T16:48:39.350Z,96.87
2017-11-18T16:51:06.929Z,97.51
2017-11-18T16:53:34.496Z,97.13
2017-11-18T16:56:02.062Z,97.00
2017-11-18T16:58:29.818Z,96.80
2017-11-18T17:00:57.374Z,96.86
2017-11-18T17:03:24.914Z,96.53
2017-11-18T17:05:52.474Z,96.69
2017-11-18T17:08:20.045Z,96.43
2017-11-18T17:10:47.701Z,96.34
2017-11-18T17:13:15.250Z,95.89
2017-11-18T17:15:43.164Z,96.30
2017-11-18T17:18:10.725Z,96.17
2017-11-18T17:20:38.261Z,95.91
2017-11-18T17:23:05.928Z,96.25
2017-11-18T17:25:33.458Z,95.89
2017-11-18T17:28:00.978Z,96.06
2017-11-18T17:30:28.592Z,95.95
2017-11-18T17:32:56.202Z,96.08
2017-11-18T17:35:23.745Z,96.50
2017-11-18T17:37:51.393Z,96.67
2017-11-18T17:40:18.959Z,96.83
2017-11-18T17:42:46.508Z,97.22
2017-11-18T17:45:14.080Z,97.19
2017-11-18T17:47:41.705Z,97.33
2017-11-18T17:50:09.264Z,97.23
2017-11-18T17:52:36.863Z,97.69
2017-11-18T17:55:04.411Z,97.89
2017-11-18T17:57:31.966Z,97.99
2017-11-18T17:59:59.760Z,97.91
2017-11-18T18:02:27.298Z,97.99
2017-11-18T18:04:54.838Z,98.18
2017-11-18T18:07:22.437Z,98.04
2017-11-18T18:09:49.974Z,98.32
2017-11-18T18:12:17.530Z,98.44
2017-11-18T18:14:45.302Z,98.47
2017-11-18T18:17:12.836Z,98.58
2017-11-18T18:19:40.364Z,98.47
2017-11-18T18:22:07.930Z,98.62
2017-11-18T18:24:35.474Z,98.73
2017-11-18T18:27:03.097Z,98.90
2017-11-18T18:29:30.630Z,99.52
2017-11-18T18:31:58.146Z,98.85
2017-11-18T18:34:25.700Z,98.69
2017-11-18T18:36:53.224Z,98.88
2017-11-18T18:39:21.119Z,98.62
2017-11-18T18:41:48.661Z,99.06
2017-11-18T18:44:16.402Z,98.99
2017-11-18T18:46:43.958Z,99.54
2017-11-18T18:49:11.495Z,99.31
2017-11-18T18:51:39.254Z,99.41
2017-11-18T18:54:06.776Z,99.37
2017-11-18T18:56:34.329Z,99.37
2017-11-18T18:59:02.027Z,99.42
2017-11-18T19:01:29.574Z,99.28
2017-11-18T19:03:57.092Z,99.25
2017-11-18T19:06:24.847Z,99.43
2017-11-18T19:08:52.374Z,99.45
2017-11-18T19:11:19.889Z,99.45
2017-11-18T19:13:47.570Z,99.06
2017-11-18T19:16:15.086Z,99.57
2017-11-18T19:18:42.635Z,99.43
2017-11-18T19:21:10.387Z,99.26
2017-11-18T19:23:37.939Z,99.50
2017-11-18T19:26:05.464Z,99.45
2017-11-18T19:28:33.132Z,99.67
2017-11-18T19:31:00.663Z,99.82
2017-11-18T19:33:28.186Z,99.80
2017-11-18T19:35:55.722Z,99.97
2017-11-18T19:38:23.377Z,99.67
2017-11-18T19:40:50.928Z,99.70
2017-11-18T19:43:18.455Z,99.85
2017-11-18T19:45:46.007Z,99.74
2017-11-18T19:48:13.567Z,99.76
2017-11-18T19:50:41.465Z,99.29
2017-11-18T19:53:08.988Z,99.56
2017-11-18T19:55:36.512Z,99.82
2017-11-18T19:58:04.105Z,100.00
2017-11-18T20:00:31.646Z,100.00
2017-11-18T20:02:59.168Z,100.00
2017-11-18T20:05:26.731Z,100.00
2017-11-18T20:07:54.287Z,100.00
2017-11-18T20:10:22.052Z,100.00
2017-11-18T20:12:49.605Z,99.89
2017-11-18T20:15:17.179Z,99.50
2017-11-18T20:17:44.802Z,99.93
2017-11-18T20:20:12.344Z,99.88
2017-11-18T20:22:39.924Z,100.00
2017-11-18T20:25:07.599Z,100.00
2017-11-18T20:27:35.146Z,100.00
2017-11-18T20:30:02.688Z,100.00
2017-11-18T20:32:30.240Z,99.72
2017-11-18T20:34:57.794Z,99.65
2017-11-18T20:37:25.334Z,100.00
2017-11-18T20:39:52.959Z,100.00
2017-11-18T20:42:20.486Z,99.92
2017-11-18T20:44:48.023Z,100.00
2017-11-18T20:47:15.600Z,100.00
2017-11-18T20:49:43.154Z,100.00
2017-11-18T20:52:10.684Z,100.00
2017-11-18T20:54:38.250Z,100.00
2017-11-18T20:57:05.784Z,100.00
2017-11-18T20:59:33.454Z,99.84
2017-11-18T21:02:00.986Z,99.60
2017-11-18T21:04:28.510Z,99.81
2017-11-18T21:06:56.097Z,99.71
2017-11-18T21:09:23.643Z,99.44
2017-11-18T21:11:51.171Z,99.91
2017-11-18T21:14:18.757Z,99.35
2017-11-18T21:16:46.304Z,99.46
2017-11-18T21:19:13.861Z,99.56
2017-11-18T21:21:41.448Z,99.65
2017-11-18T21:24:08.961Z,99.60
2017-11-18T21:26:36.482Z,99.61
2017-11-18T21:29:04.147Z,99.50
2017-11-18T21:31:31.681Z,99.57
2017-11-18T21:33:59.210Z,99.48
2017-11-18T21:36:26.776Z,99.25
2017-11-18T21:38:54.328Z,99.24
2017-11-18T21:41:21.882Z,99.18
2017-11-18T21:43:49.405Z,99.05
2017-11-18T21:46:16.946Z,98.99
2017-11-18T21:48:44.467Z,98.97
2017-11-18T21:51:12.247Z,98.79
2017-11-18T21:53:39.773Z,98.56
2017-11-18T21:56:07.307Z,98.29
2017-11-18T21:58:35.150Z,98.45
2017-11-18T22:01:02.831Z,98.64
2017-11-18T22:03:31.066Z,98.73
2017-11-18T22:05:58.628Z,98.83
2017-11-18T22:08:26.219Z,98.65
2017-11-18T22:10:53.751Z,98.57
2017-11-18T22:13:21.280Z,98.38
2017-11-18T22:15:48.830Z,98.40
2017-11-18T22:18:16.355Z,98.42
2017-11-18T22:20:43.950Z,98.15
2017-11-18T22:23:12.111Z,98.29
2017-11-18T22:25:39.646Z,98.27
2017-11-18T22:28:07.378Z,98.05
2017-11-18T22:30:34.907Z,98.16
2017-11-18T22:33:02.434Z,97.89
2017-11-18T22:35:30.005Z,97.85
2017-11-18T22:37:57.522Z,96.92
2017-11-18T22:40:25.050Z,96.55
2017-11-18T22:42:52.702Z,96.94
2017-11-18T22:45:20.228Z,97.59
2017-11-18T22:47:47.741Z,97.52
2017-11-18T22:50:15.526Z,97.37
2017-11-18T22:52:43.061Z,97.66
2017-11-18T22:55:10.580Z,98.12
2017-11-18T22:57:38.243Z,98.35
2017-11-18T23:00:05.766Z,98.40
2017-11-18T23:02:33.291Z,98.52
2017-11-18T23:05:00.903Z,98.72
2017-11-18T23:07:28.425Z,99.06
2017-11-18T23:09:55.937Z,99.15
2017-11-18T23:12:23.513Z,98.97
2017-11-18T23:14:51.045Z,99.10
2017-11-18T23:17:18.571Z,98.92
2017-11-18T23:19:46.154Z,99.30
2017-11-18T23:22:13.680Z,99.41
2017-11-18T23:24:41.208Z,99.00
2017-11-18T23:27:08.930Z,99.38
2017-11-18T23:29:36.452Z,99.44
2017-11-18T23:32:03.993Z,98.74
2017-11-18T23:34:31.536Z,98.74
2017-11-18T23:36:59.206Z,99.34
2017-11-18T23:39:26.727Z,98.82
2017-11-18T23:41:54.243Z,98.94
2017-11-18T23:44:21.787Z,98.91
2017-11-18T23:46:49.375Z,98.88
2017-11-18T23:49:16.898Z,98.39
2017-11-18T23:51:44.433Z,98.51
2017-11-18T23:54:12.024Z,99.55
2017-11-18T23:56:39.537Z,98.43
2017-11-18T23:59:07.055Z,98.76
